TENO2: Tenkiller Lake

Data processed at Sun Oct 25 2020 22:55


All information presented herein is the property of the government of the United States of America and may be revised or deleted at any time without prior notice.
Dissemination of this information without the expressed written consent of the Public Affairs Office, Tulsa District U.S. Army Corps of Engineers is strictly prohibited.
These data are gathered electronically and, as presented, have not undergone any form of quality control. These data are not guaranteed to be valid or correct.
Go to home page.
Go to station list.
Go to home page.

Upstream stations:

Downstream station:
Previous Day
Next Day
Current Day
    
SHEF ID:       TENO2     Tenkiller Lake
STATION TYPE:  Reservoir
Flood Pool:  Bottom =   632.00, Top =   667.00

               PRECIP PRECIP(A) ELEVATION   STORAGE   TW-ELEV    INFLOW   RELEASE  AIR-TEMP  WIND-DIRWIND-SPEED REL-HUMID SOLAR-RAD   VOLTAGE  BAT-LOAD
                   in        in        ft     ac-ft        ft       cfs       cfs         F       deg       mph         %      W/m2      volt      volt
              Ccp-Rev   Ccp-Rev   Ccp-Rev   Ccp-Rev   Ccp-Rev  Rev-Regi  Rev-Regi   Ccp-Rev   Ccp-Rev   Ccp-Rev   Ccp-Rev   Ccp-Rev   Ccp-Rev   Ccp-Rev
(US/Central)
10/25 00:00      0.00      ----    632.71    677937    483.03       213       318     49.46    175.70      0.80     86.88      0.00     13.22     12.76
10/25 01:00      0.00      ----    632.71    677937    483.03       769       318     49.89    177.30      1.00     86.90      0.00     13.20     12.76
10/25 02:00      0.00      ----    632.70    677800    483.03       769       318     50.36    161.00      2.00     84.28      0.00     13.21     12.76
10/25 03:00      0.00      ----    632.72    678074    483.03       769       318     50.45    122.70      1.50     81.82      0.00     13.21     12.76
10/25 04:00      0.00      ----    632.71    677937    483.03       769       318     50.11    124.10      1.30     84.30      0.00     13.21     12.76
10/25 05:00      0.00      ----    632.72    678074    483.03       822       318     49.98    111.70      2.20     85.94      0.00     13.23     12.75
10/25 06:00      0.00      ----    632.72    678074    483.03       266       318     50.16    121.40      2.30     85.94      0.00     13.23     12.76
10/25 07:00      0.00      ----    632.72    678074    483.03       266       318     50.27    124.80      1.40     86.06      0.00     13.22     12.76
10/25 08:00      0.00      ----    632.72    678074    483.03       266       318     50.27    131.90      2.60     86.71      0.30     13.22     12.76
10/25 09:00      0.00      ----    632.72    678074    483.03       277       318     50.31    187.10      1.00     87.01     17.20     13.22     12.76
10/25 10:00      0.00      ----    632.72    678074    483.03       287       318     51.04    182.20      0.40     85.71     36.50     13.20     12.76
10/25 11:00      0.00      ----    632.72    678074    483.03       297       318     51.87    218.10      0.80     82.80     45.50     13.21     12.75
10/25 12:00      0.00      ----    632.72    678074    483.03       308       318     52.57    208.80      0.70     80.31     62.30     13.21     12.76
10/25 13:00      0.00      ----    632.72    678074    483.03       318       318     53.19    241.20      1.00     76.34    125.50     13.23     12.77
10/25 14:00      0.00      ----    632.73    678212    483.03       650       318     54.39    109.10      0.90     72.05    151.40     13.23     12.75
10/25 15:00      0.00      ----    632.72    678074    483.03       650       318     55.20    158.30      1.00     68.43    106.60     13.20     12.76
10/25 16:00      0.00      ----    632.73    678212    483.03       650       318     55.51    200.20      1.60     67.17     46.20     13.24     12.75
10/25 17:00      0.00      ----    632.73    678212    483.03       650       318     55.96    195.40      2.10     65.72     25.80     13.19     12.77
10/25 18:00      0.00      ----    632.73    678212    483.03       650       318     55.29    202.80      2.50     68.50      7.90     13.21     12.77
10/25 19:00      0.00      ----    632.72    678074    483.03       318       318     54.23    192.70      2.70     73.81      0.00     13.18     12.76
10/25 20:00      0.00      ----    632.73    678212    483.03       318       318     53.73    203.60      2.50     72.41      0.00     13.23     12.76
10/25 21:00      0.00      ----    632.73    678212    483.03       318       318     53.17    200.40      3.20     72.33      0.00     13.24     12.76
10/25 22:00      ----      ----      ----      ----      ----      ----      ----      ----      ----      ----      ----      ----      ----      ----
10/25 23:00      ----      ----      ----      ----      ----      ----      ----      ----      ----      ----      ----      ----      ----      ----